DIAP/ABJ METAR and TAF weather

Enter ICAO airport designator
Station Type Date Time Source
DIAP METAR 2019/04/21 22:00 UTC NOAA

DIAP 212200Z 24005KT 9999 FEW012 29/27 Q1010 NOSIG


Station Type Date Time Source
DIAP Decoded METAR 2019/04/21 22:00 UTC NOAA

Abidjan, Cote d'Ivoire (DIAP) 05-15N 003-56W 8M
Apr 21, 2019 - 06:00 PM EDT / 2019.04.21 2200 UTC
Wind: from the WSW (240 degrees) at 6 MPH (5 KT):0
Visibility: greater than 7 mile(s):0
Sky conditions: mostly clear
Temperature: 84 F (29 C)
Dew Point: 80 F (27 C)
Relative Humidity: 88%
Pressure (altimeter): 29.83 in. Hg (1010 hPa)
ob: DIAP 212200Z 24005KT 9999 FEW012 29/27 Q1010 NOSIG
cycle: 22

Station Type Date Time Source
DIAP TAF 2019/04/21 18:00 UTC NOAA

TAF DIAP 211700Z 2118/2224 24010KT 9999 SCT012
TEMPO 2118/2122 TS BKN012 FEW020CB PROB30
TEMPO 2216/2222 TS BKN012 FEW020CB

Example: see airport list